createdAt,value
2022-09-07T00:00:44.482Z,61.38
2022-09-07T00:03:11.891Z,61.23
2022-09-07T00:05:43.590Z,61.27
2022-09-07T00:08:11.161Z,61.24
2022-09-07T00:10:39.577Z,60.96
2022-09-07T00:13:08.632Z,61.02
2022-09-07T00:15:40.812Z,61.07
2022-09-07T00:18:08.357Z,61.15
2022-09-07T00:20:35.808Z,61.13
2022-09-07T00:23:03.261Z,61.23
2022-09-07T00:25:32.030Z,61.20
2022-09-07T00:27:59.711Z,61.10
2022-09-07T00:30:26.862Z,61.18
2022-09-07T00:32:54.108Z,61.13
2022-09-07T00:35:21.388Z,61.18
2022-09-07T00:37:49.029Z,61.16
2022-09-07T00:40:16.483Z,61.28
2022-09-07T00:42:43.804Z,61.10
2022-09-07T00:45:18.987Z,61.13
2022-09-07T00:48:04.552Z,61.18
2022-09-07T00:50:44.912Z,61.27
2022-09-07T00:53:35.020Z,61.17
2022-09-07T00:56:04.033Z,61.30
2022-09-07T00:58:32.249Z,61.35
2022-09-07T01:00:59.522Z,61.49
2022-09-07T01:03:36.913Z,61.47
2022-09-07T01:06:10.297Z,61.70
2022-09-07T01:08:37.556Z,61.66
2022-09-07T01:11:05.322Z,61.90
2022-09-07T01:13:32.753Z,61.88
2022-09-07T01:16:01.944Z,62.03
2022-09-07T01:18:59.552Z,62.14
2022-09-07T01:21:30.155Z,62.25
2022-09-07T01:24:42.993Z,62.28
2022-09-07T01:27:31.543Z,62.16
2022-09-07T01:30:04.634Z,62.23
2022-09-07T01:33:02.632Z,62.36
2022-09-07T01:35:37.232Z,62.60
2022-09-07T01:38:39.512Z,62.53
2022-09-07T01:41:23.700Z,62.48
2022-09-07T01:44:15.993Z,62.48
2022-09-07T01:46:44.418Z,62.55
2022-09-07T01:49:20.101Z,62.57
2022-09-07T01:51:51.496Z,62.46
2022-09-07T01:54:32.733Z,62.64
2022-09-07T01:57:06.862Z,62.73
2022-09-07T01:59:38.815Z,62.78
2022-09-07T02:02:19.398Z,62.91
2022-09-07T02:04:50.924Z,63.09
2022-09-07T02:07:27.512Z,62.98
2022-09-07T02:10:33.695Z,63.01
2022-09-07T02:13:07.427Z,63.09
2022-09-07T02:15:58.117Z,63.14
2022-09-07T02:18:28.181Z,63.24
2022-09-07T02:20:58.315Z,63.20
2022-09-07T02:23:29.869Z,63.27
2022-09-07T02:26:02.252Z,63.30
2022-09-07T02:28:32.837Z,63.23
2022-09-07T02:31:00.782Z,63.59
2022-09-07T02:33:29.154Z,63.44
2022-09-07T02:35:56.592Z,63.50
2022-09-07T02:38:24.499Z,63.56
2022-09-07T02:40:55.995Z,63.58
2022-09-07T02:43:24.166Z,63.50
2022-09-07T02:45:54.352Z,63.65
2022-09-07T02:48:31.147Z,63.54
2022-09-07T02:51:19.592Z,63.58
2022-09-07T02:54:15.552Z,63.74
2022-09-07T02:56:57.531Z,63.95
2022-09-07T02:59:30.521Z,64.05
2022-09-07T03:02:06.003Z,64.25
2022-09-07T03:04:48.473Z,64.35
2022-09-07T03:07:19.289Z,63.99
2022-09-07T03:09:49.901Z,64.04
2022-09-07T03:12:17.605Z,63.79
2022-09-07T03:14:45.172Z,63.98
2022-09-07T03:17:12.721Z,64.03
2022-09-07T03:19:39.978Z,64.13
2022-09-07T03:22:07.635Z,64.05
2022-09-07T03:24:34.788Z,64.05
2022-09-07T03:27:02.141Z,64.09
2022-09-07T03:29:29.288Z,64.05
2022-09-07T03:31:56.439Z,63.97
2022-09-07T03:34:23.585Z,64.12
2022-09-07T03:36:50.737Z,64.15
2022-09-07T03:39:21.264Z,64.28
2022-09-07T03:41:49.045Z,64.20
2022-09-07T03:44:16.194Z,64.15
2022-09-07T03:46:44.761Z,63.89
2022-09-07T03:49:11.913Z,64.07
2022-09-07T03:51:39.882Z,63.89
2022-09-07T03:54:07.652Z,63.87
2022-09-07T03:56:34.913Z,63.92
2022-09-07T03:59:02.051Z,64.08
2022-09-07T04:01:29.572Z,64.17
2022-09-07T04:04:02.915Z,63.94
2022-09-07T04:06:30.768Z,63.85
2022-09-07T04:09:01.609Z,63.94
2022-09-07T04:11:28.856Z,63.94
2022-09-07T04:13:56.117Z,64.05
2022-09-07T04:16:25.668Z,63.85
2022-09-07T04:18:55.162Z,63.95
2022-09-07T04:21:23.907Z,63.94
2022-09-07T04:23:51.466Z,64.01
2022-09-07T04:26:24.534Z,64.23
2022-09-07T04:28:55.206Z,64.40
2022-09-07T04:31:23.583Z,64.51
2022-09-07T04:33:51.952Z,64.51
2022-09-07T04:36:20.788Z,64.42
2022-09-07T04:38:54.384Z,64.54
2022-09-07T04:41:21.912Z,64.42
2022-09-07T04:43:53.617Z,64.42
2022-09-07T04:46:24.132Z,64.34
2022-09-07T04:48:53.660Z,64.59
2022-09-07T04:51:22.693Z,64.61
2022-09-07T04:53:51.152Z,64.65
2022-09-07T04:56:19.263Z,64.59
2022-09-07T04:58:47.628Z,64.54
2022-09-07T05:01:18.198Z,64.53
2022-09-07T05:03:45.620Z,64.42
2022-09-07T05:06:13.602Z,64.29
2022-09-07T05:08:43.714Z,64.44
2022-09-07T05:11:12.516Z,64.30
2022-09-07T05:13:39.921Z,64.28
2022-09-07T05:16:14.657Z,64.28
2022-09-07T05:18:42.710Z,64.07
2022-09-07T05:21:15.186Z,64.05
2022-09-07T05:23:43.246Z,63.85
2022-09-07T05:26:10.997Z,63.70
2022-09-07T05:28:38.823Z,63.47
2022-09-07T05:31:23.243Z,63.16
2022-09-07T05:36:43.048Z,62.43
2022-09-07T05:39:10.616Z,62.24
2022-09-07T05:41:38.470Z,62.34
2022-09-07T05:46:53.895Z,61.52
2022-09-07T05:49:21.117Z,61.14
2022-09-07T05:51:48.860Z,60.92
2022-09-07T05:54:16.132Z,60.92
2022-09-07T05:56:43.388Z,60.61
2022-09-07T05:59:11.367Z,60.41
2022-09-07T06:01:38.858Z,60.57
2022-09-07T06:04:06.066Z,60.56
2022-09-07T06:06:33.479Z,60.39
2022-09-07T06:09:00.877Z,59.90
2022-09-07T06:11:28.152Z,59.80
2022-09-07T06:13:55.380Z,59.78
2022-09-07T06:16:23.295Z,59.47
2022-09-07T06:18:50.983Z,59.25
2022-09-07T06:21:23.063Z,58.90
2022-09-07T06:23:50.733Z,58.83
2022-09-07T06:26:19.806Z,58.81
2022-09-07T06:28:50.762Z,58.65
2022-09-07T06:31:20.809Z,58.41
2022-09-07T06:33:48.959Z,58.38
2022-09-07T06:36:21.554Z,58.27
2022-09-07T06:38:49.616Z,58.28
2022-09-07T06:44:05.477Z,58.05
2022-09-07T06:49:20.510Z,57.65
2022-09-07T06:51:47.821Z,57.92
2022-09-07T06:57:09.489Z,57.25
2022-09-07T06:59:37.515Z,57.12
2022-09-07T07:02:06.147Z,57.14
2022-09-07T07:04:37.781Z,56.60
2022-09-07T07:07:07.101Z,56.61
2022-09-07T07:09:34.549Z,56.25
2022-09-07T07:12:03.141Z,56.23
2022-09-07T07:14:33.779Z,56.10
2022-09-07T07:17:02.980Z,56.07
2022-09-07T07:19:30.223Z,55.79
2022-09-07T07:24:45.064Z,56.23
2022-09-07T07:27:12.473Z,56.09
2022-09-07T07:29:39.714Z,56.49
2022-09-07T07:32:07.069Z,55.92
2022-09-07T07:34:34.385Z,55.88
2022-09-07T07:37:01.695Z,56.44
2022-09-07T07:42:16.372Z,55.89
2022-09-07T07:44:43.603Z,55.70
2022-09-07T07:47:10.872Z,55.47
2022-09-07T07:49:38.022Z,55.71
2022-09-07T07:54:53.808Z,55.33
2022-09-07T07:57:21.592Z,55.32
2022-09-07T07:59:48.846Z,55.12
2022-09-07T08:02:17.220Z,55.33
2022-09-07T08:04:45.693Z,55.36
2022-09-07T08:07:13.343Z,56.03
2022-09-07T08:09:41.833Z,55.22
2022-09-07T08:12:13.342Z,55.04
2022-09-07T08:14:41.709Z,55.01
2022-09-07T08:17:14.025Z,55.38
2022-09-07T08:19:41.694Z,56.02
2022-09-07T08:22:11.187Z,55.77
2022-09-07T08:24:38.441Z,55.46
2022-09-07T08:27:05.700Z,55.23
2022-09-07T08:29:35.080Z,54.97
2022-09-07T08:32:06.988Z,54.48
2022-09-07T08:34:36.762Z,54.85
2022-09-07T08:37:04.022Z,55.16
2022-09-07T08:39:31.418Z,55.47
2022-09-07T08:42:07.750Z,55.21
2022-09-07T08:44:42.120Z,55.21
2022-09-07T08:47:40.237Z,55.14
2022-09-07T08:50:12.262Z,55.10
2022-09-07T08:52:52.812Z,54.93
2022-09-07T08:55:29.908Z,54.51
2022-09-07T08:58:22.192Z,54.70
2022-09-07T09:06:57.130Z,55.36
2022-09-07T09:09:50.619Z,54.47
2022-09-07T09:12:52.710Z,53.63
2022-09-07T09:15:23.032Z,53.75
2022-09-07T09:18:18.133Z,53.34
2022-09-07T09:20:51.073Z,53.65
2022-09-07T09:23:20.832Z,53.70
2022-09-07T09:25:54.932Z,53.61
2022-09-07T09:28:24.649Z,52.99
2022-09-07T09:30:53.810Z,53.18
2022-09-07T09:33:27.042Z,53.37
2022-09-07T09:35:56.764Z,52.98
2022-09-07T09:38:34.529Z,52.84
2022-09-07T09:41:15.710Z,53.33
2022-09-07T09:43:48.512Z,52.90
2022-09-07T09:46:20.725Z,53.14
2022-09-07T09:48:54.122Z,51.84
2022-09-07T09:54:23.905Z,52.05
2022-09-07T09:56:51.759Z,51.73
2022-09-07T10:05:35.755Z,51.75
2022-09-07T10:08:06.862Z,51.74
2022-09-07T10:10:34.071Z,51.18
2022-09-07T10:13:01.293Z,51.53
2022-09-07T10:15:40.522Z,51.13
2022-09-07T10:18:18.903Z,51.62
2022-09-07T10:20:46.121Z,51.50
2022-09-07T10:23:24.424Z,51.42
2022-09-07T10:25:52.438Z,51.15
2022-09-07T10:28:25.157Z,51.08
2022-09-07T10:31:14.560Z,50.87
2022-09-07T10:34:27.029Z,51.66
2022-09-07T10:37:09.169Z,51.41
2022-09-07T10:39:40.133Z,51.12
2022-09-07T10:42:10.429Z,51.36
2022-09-07T10:44:43.562Z,50.71
2022-09-07T10:47:44.753Z,50.79
2022-09-07T10:50:29.142Z,50.42
2022-09-07T10:53:43.849Z,51.13
2022-09-07T10:56:15.731Z,50.36
2022-09-07T10:59:05.637Z,50.49
2022-09-07T11:01:58.294Z,50.47
2022-09-07T11:04:40.686Z,49.79
2022-09-07T11:07:15.678Z,49.32
2022-09-07T11:09:49.194Z,49.61
2022-09-07T11:12:27.349Z,50.24
2022-09-07T11:15:07.323Z,50.66
2022-09-07T11:18:05.288Z,50.14
2022-09-07T11:20:37.739Z,49.70
2022-09-07T11:23:29.173Z,49.34
2022-09-07T11:26:07.830Z,49.34
2022-09-07T11:31:45.933Z,49.81
2022-09-07T11:34:24.635Z,49.66
2022-09-07T11:37:11.421Z,49.94
2022-09-07T11:39:41.479Z,49.77
2022-09-07T11:42:43.134Z,49.49
2022-09-07T11:45:22.715Z,49.96
2022-09-07T11:47:57.021Z,49.70
2022-09-07T11:50:24.844Z,49.27
2022-09-07T11:53:01.435Z,48.73
2022-09-07T11:55:31.744Z,48.72
2022-09-07T11:58:44.041Z,48.70
2022-09-07T12:01:19.977Z,49.69
2022-09-07T12:04:05.643Z,49.23
2022-09-07T12:07:03.702Z,49.01
2022-09-07T12:09:52.356Z,48.94
2022-09-07T12:12:42.464Z,48.59
2022-09-07T12:15:30.982Z,49.15
2022-09-07T12:18:05.587Z,49.01
2022-09-07T12:20:44.212Z,48.82
2022-09-07T12:23:17.382Z,48.68
2022-09-07T12:25:49.358Z,48.78
2022-09-07T12:28:25.589Z,48.57
2022-09-07T12:31:07.133Z,48.48
2022-09-07T12:33:38.996Z,48.16
2022-09-07T12:36:38.670Z,48.30
2022-09-07T12:39:17.429Z,48.64
2022-09-07T12:45:30.294Z,48.62
2022-09-07T12:48:00.410Z,48.49
2022-09-07T12:50:30.061Z,48.72
2022-09-07T12:53:48.552Z,48.54
2022-09-07T12:56:39.332Z,48.31
2022-09-07T12:59:37.244Z,48.24
2022-09-07T13:02:24.290Z,48.09
2022-09-07T13:04:57.206Z,48.29
2022-09-07T13:07:46.477Z,49.02
2022-09-07T13:10:33.536Z,49.09
2022-09-07T13:13:04.769Z,49.27
2022-09-07T13:15:41.030Z,48.50
2022-09-07T13:18:27.278Z,48.14
2022-09-07T13:21:09.493Z,48.87
2022-09-07T13:23:40.773Z,48.39
2022-09-07T13:26:10.176Z,48.88
2022-09-07T13:28:52.668Z,48.85
2022-09-07T13:31:23.608Z,49.15
2022-09-07T13:33:52.457Z,49.92
2022-09-07T13:36:24.480Z,49.65
2022-09-07T13:38:53.567Z,48.89
2022-09-07T13:41:29.898Z,48.54
2022-09-07T13:44:00.684Z,48.20
2022-09-07T13:46:56.884Z,48.49
2022-09-07T13:49:23.858Z,48.43
2022-09-07T13:52:12.813Z,48.55
2022-09-07T13:55:01.972Z,48.60
2022-09-07T13:57:31.466Z,49.15
2022-09-07T13:59:59.160Z,49.45
2022-09-07T14:02:33.117Z,49.28
2022-09-07T14:05:01.232Z,49.16
2022-09-07T14:07:31.842Z,48.89
2022-09-07T14:10:20.781Z,48.91
2022-09-07T14:12:50.916Z,49.72
2022-09-07T14:15:33.783Z,49.42
2022-09-07T14:18:06.617Z,49.38
2022-09-07T14:20:42.275Z,49.25
2022-09-07T14:23:25.721Z,48.90
2022-09-07T14:26:16.653Z,49.02
2022-09-07T14:28:46.222Z,49.45
2022-09-07T14:31:16.204Z,49.16
2022-09-07T14:33:51.801Z,49.67
2022-09-07T14:36:45.415Z,49.45
2022-09-07T14:39:09.023Z,49.51
2022-09-07T14:41:41.084Z,49.39
2022-09-07T14:44:34.037Z,49.55
2022-09-07T14:47:04.805Z,49.64
2022-09-07T14:49:32.326Z,49.78
2022-09-07T14:52:00.748Z,50.09
2022-09-07T14:54:31.644Z,49.89
2022-09-07T14:57:02.904Z,49.96
2022-09-07T14:59:43.183Z,49.89
2022-09-07T15:02:20.084Z,50.28
2022-09-07T15:04:49.058Z,49.89
2022-09-07T15:07:39.015Z,50.17
2022-09-07T15:10:21.410Z,50.14
2022-09-07T15:12:50.712Z,49.85
2022-09-07T15:15:40.585Z,49.82
2022-09-07T15:18:45.625Z,49.74
2022-09-07T15:21:12.892Z,49.93
2022-09-07T15:23:40.132Z,50.13
2022-09-07T15:27:01.933Z,50.35
2022-09-07T15:29:13.705Z,50.13
2022-09-07T15:31:42.791Z,50.06
2022-09-07T15:34:17.987Z,50.13
2022-09-07T15:36:53.310Z,50.11
2022-09-07T15:39:23.244Z,50.31
2022-09-07T15:41:51.636Z,50.62
2022-09-07T15:44:24.381Z,51.04
2022-09-07T15:49:43.500Z,51.19
2022-09-07T15:52:13.603Z,51.02
2022-09-07T15:54:40.873Z,51.30
2022-09-07T15:59:55.331Z,51.18
2022-09-07T16:05:10.655Z,51.56
2022-09-07T16:10:27.361Z,51.50
2022-09-07T16:13:03.199Z,51.61
2022-09-07T16:15:45.246Z,51.99
2022-09-07T16:18:16.438Z,52.03
2022-09-07T16:20:44.828Z,52.05
2022-09-07T16:23:15.008Z,52.25
2022-09-07T16:25:43.848Z,52.49
2022-09-07T16:28:11.703Z,52.52
2022-09-07T16:30:40.995Z,52.63
2022-09-07T16:33:08.802Z,52.89
2022-09-07T16:35:36.343Z,52.94
2022-09-07T16:40:51.526Z,53.34
2022-09-07T16:43:19.096Z,53.40
2022-09-07T16:48:35.591Z,53.63
2022-09-07T16:51:04.513Z,53.84
2022-09-07T16:53:34.625Z,53.90
2022-09-07T16:56:06.438Z,53.87
2022-09-07T16:58:35.704Z,54.15
2022-09-07T17:01:04.482Z,54.67
2022-09-07T17:03:32.876Z,54.45
2022-09-07T17:06:01.465Z,54.81
2022-09-07T17:08:29.008Z,55.10
2022-09-07T17:11:01.424Z,55.16
2022-09-07T17:13:28.896Z,55.62
2022-09-07T17:16:02.545Z,55.67
2022-09-07T17:21:19.745Z,55.82
2022-09-07T17:23:54.212Z,56.19
2022-09-07T17:26:26.056Z,56.36
2022-09-07T17:28:55.213Z,56.48
2022-09-07T17:34:15.521Z,56.83
2022-09-07T17:36:42.773Z,57.04
2022-09-07T17:39:15.907Z,57.34
2022-09-07T17:41:43.859Z,57.59
2022-09-07T17:44:11.923Z,57.51
2022-09-07T17:46:39.575Z,57.83
2022-09-07T17:49:11.869Z,57.89
2022-09-07T17:51:39.298Z,58.35
2022-09-07T17:54:11.599Z,58.51
2022-09-07T17:56:43.734Z,58.77
2022-09-07T18:02:01.002Z,59.01
2022-09-07T18:04:29.685Z,59.25
2022-09-07T18:06:57.733Z,59.35
2022-09-07T18:09:25.183Z,59.54
2022-09-07T18:11:53.224Z,59.77
2022-09-07T18:14:21.022Z,59.98
2022-09-07T18:16:50.878Z,60.21
2022-09-07T18:19:19.653Z,60.37
2022-09-07T18:21:48.657Z,60.54
2022-09-07T18:24:23.038Z,60.79
2022-09-07T18:26:53.343Z,60.83
2022-09-07T18:29:33.915Z,60.91
2022-09-07T18:32:08.222Z,61.12
2022-09-07T18:34:40.571Z,61.30
2022-09-07T18:37:09.506Z,61.49
2022-09-07T18:39:40.474Z,61.64
2022-09-07T18:42:09.432Z,61.86
2022-09-07T18:47:29.787Z,62.18
2022-09-07T18:49:58.337Z,62.21
2022-09-07T18:55:14.674Z,62.70
2022-09-07T18:57:42.814Z,62.90
2022-09-07T19:00:12.223Z,62.89
2022-09-07T19:02:40.434Z,63.09
2022-09-07T19:07:58.031Z,63.60
2022-09-07T19:10:25.999Z,63.77
2022-09-07T19:12:54.293Z,63.82
2022-09-07T19:15:22.330Z,63.78
2022-09-07T19:17:50.620Z,64.04
2022-09-07T19:20:18.810Z,64.27
2022-09-07T19:22:47.078Z,64.34
2022-09-07T19:25:15.043Z,64.55
2022-09-07T19:27:42.854Z,64.67
2022-09-07T19:30:11.165Z,64.90
2022-09-07T19:32:38.978Z,65.01
2022-09-07T19:35:07.456Z,65.04
2022-09-07T19:37:38.476Z,65.30
2022-09-07T19:40:08.976Z,65.09
2022-09-07T19:42:37.586Z,65.49
2022-09-07T19:45:06.942Z,65.47
2022-09-07T19:47:35.716Z,65.64
2022-09-07T19:50:03.991Z,65.81
2022-09-07T19:52:32.555Z,65.97
2022-09-07T19:55:03.883Z,65.88
2022-09-07T19:57:31.352Z,65.91
2022-09-07T20:00:00.227Z,66.02
2022-09-07T20:02:28.224Z,66.32
2022-09-07T20:04:56.793Z,66.34
2022-09-07T20:07:24.860Z,66.48
2022-09-07T20:09:54.149Z,66.39
2022-09-07T20:12:21.552Z,66.43
2022-09-07T20:14:49.570Z,66.46
2022-09-07T20:17:17.616Z,66.69
2022-09-07T20:19:45.309Z,66.52
2022-09-07T20:22:13.373Z,66.73
2022-09-07T20:24:41.274Z,66.84
2022-09-07T20:27:08.900Z,66.67
2022-09-07T20:29:36.562Z,66.94
2022-09-07T20:32:03.911Z,67.12
2022-09-07T20:34:31.825Z,67.26
2022-09-07T20:37:00.473Z,67.40
2022-09-07T20:39:27.919Z,67.55
2022-09-07T20:41:55.293Z,67.76
2022-09-07T20:44:22.538Z,68.08
2022-09-07T20:46:49.727Z,68.21
2022-09-07T20:49:16.834Z,68.24
2022-09-07T20:51:43.884Z,68.29
2022-09-07T20:54:11.177Z,68.51
2022-09-07T20:56:38.594Z,68.67
2022-09-07T20:59:05.962Z,68.74
2022-09-07T21:01:35.510Z,69.02
2022-09-07T21:04:04.320Z,69.10
2022-09-07T21:06:32.115Z,69.20
2022-09-07T21:09:00.294Z,69.17
2022-09-07T21:11:32.415Z,69.35
2022-09-07T21:14:00.520Z,69.54
2022-09-07T21:16:28.756Z,69.61
2022-09-07T21:18:57.906Z,69.74
2022-09-07T21:21:26.929Z,69.81
2022-09-07T21:23:59.766Z,70.05
2022-09-07T21:26:28.687Z,70.12
2022-09-07T21:28:57.553Z,70.01
2022-09-07T21:31:25.623Z,70.29
2022-09-07T21:33:57.579Z,70.31
2022-09-07T21:36:25.457Z,70.16
2022-09-07T21:38:53.158Z,70.32
2022-09-07T21:41:21.804Z,70.36
2022-09-07T21:43:49.055Z,70.64
2022-09-07T21:46:21.958Z,70.67
2022-09-07T21:48:49.213Z,70.80
2022-09-07T21:51:17.156Z,70.80
2022-09-07T21:53:45.218Z,71.13
2022-09-07T21:56:14.528Z,71.27
2022-09-07T21:58:42.494Z,71.16
2022-09-07T22:01:19.825Z,71.29
2022-09-07T22:03:49.387Z,71.14
2022-09-07T22:06:16.427Z,71.39
2022-09-07T22:08:43.713Z,71.44
2022-09-07T22:11:16.494Z,71.52
2022-09-07T22:13:44.025Z,71.67
2022-09-07T22:16:12.066Z,71.86
2022-09-07T22:18:40.561Z,71.95
2022-09-07T22:21:09.692Z,72.10
2022-09-07T22:23:39.689Z,72.43
2022-09-07T22:26:07.499Z,72.70
2022-09-07T22:28:35.220Z,72.72
2022-09-07T22:31:41.485Z,73.14
2022-09-07T22:34:09.804Z,73.31
2022-09-07T22:36:40.211Z,73.59
2022-09-07T22:39:10.611Z,73.86
2022-09-07T22:41:39.125Z,74.07
2022-09-07T22:44:10.438Z,74.21
2022-09-07T22:46:39.695Z,74.52
2022-09-07T22:49:07.513Z,74.57
2022-09-07T22:51:34.665Z,74.69
2022-09-07T22:54:02.137Z,74.87
2022-09-07T22:56:31.832Z,74.98
2022-09-07T22:59:04.412Z,75.13
2022-09-07T23:01:32.394Z,75.45
2022-09-07T23:04:00.436Z,75.88
2022-09-07T23:06:46.509Z,76.23
2022-09-07T23:09:16.772Z,76.33
2022-09-07T23:11:45.508Z,76.49
2022-09-07T23:14:16.054Z,76.51
2022-09-07T23:16:44.144Z,76.67
2022-09-07T23:19:13.361Z,76.83
2022-09-07T23:21:40.986Z,76.93
2022-09-07T23:24:10.043Z,76.99
2022-09-07T23:26:37.153Z,77.36
2022-09-07T23:29:05.852Z,77.46
2022-09-07T23:31:34.766Z,77.63
2022-09-07T23:34:03.313Z,78.02
2022-09-07T23:36:31.393Z,78.19
2022-09-07T23:39:00.079Z,78.38
2022-09-07T23:41:28.019Z,78.65
2022-09-07T23:43:56.105Z,79.13
2022-09-07T23:46:23.578Z,79.47
2022-09-07T23:48:51.021Z,79.75
2022-09-07T23:51:23.553Z,79.88
2022-09-07T23:53:52.175Z,80.01
2022-09-07T23:56:19.751Z,80.21
2022-09-07T23:58:46.778Z,80.38
